createdAt,value
2022-12-17T00:02:05.840Z,24.38
2022-12-17T00:04:52.322Z,22.38
2022-12-17T00:07:39.366Z,26.08
2022-12-17T00:10:26.772Z,27.02
2022-12-17T00:13:13.746Z,24.35
2022-12-17T00:16:00.945Z,25.67
2022-12-17T00:18:47.510Z,25.30
2022-12-17T00:21:34.042Z,24.63
2022-12-17T00:24:20.501Z,23.45
2022-12-17T00:27:07.650Z,24.58
2022-12-17T00:29:54.325Z,21.65
2022-12-17T00:35:29.445Z,25.20
2022-12-17T00:38:16.415Z,22.08
2022-12-17T00:41:02.747Z,22.00
2022-12-17T00:43:49.275Z,22.20
2022-12-17T00:46:35.714Z,23.42
2022-12-17T00:49:22.172Z,23.23
2022-12-17T00:52:08.783Z,22.48
2022-12-17T00:54:55.404Z,24.25
2022-12-17T00:57:42.660Z,25.45
2022-12-17T01:00:30.205Z,23.95
2022-12-17T01:06:18.251Z,19.90
2022-12-17T01:09:05.020Z,25.80
2022-12-17T01:11:51.781Z,25.70
2022-12-17T01:14:39.140Z,22.33
2022-12-17T01:17:25.635Z,25.13
2022-12-17T01:20:12.407Z,23.88
2022-12-17T01:22:59.991Z,26.70
2022-12-17T01:25:46.312Z,24.52
2022-12-17T01:28:32.543Z,24.02
2022-12-17T01:31:18.561Z,22.60
2022-12-17T01:34:05.701Z,23.90
2022-12-17T01:36:51.802Z,25.38
2022-12-17T01:39:38.591Z,25.15
2022-12-17T01:42:31.096Z,26.33
2022-12-17T01:45:18.267Z,24.95
2022-12-17T01:48:51.388Z,22.70
2022-12-17T01:51:38.931Z,24.38
2022-12-17T01:54:25.958Z,24.20
2022-12-17T01:57:14.491Z,25.63
2022-12-17T02:00:12.131Z,27.17
2022-12-17T02:03:02.906Z,25.33
2022-12-17T02:06:08.670Z,25.40
2022-12-17T02:09:01.712Z,24.65
2022-12-17T02:12:18.233Z,27.23
2022-12-17T02:15:17.105Z,30.27
2022-12-17T02:18:11.812Z,27.15
2022-12-17T02:21:05.927Z,25.45
2022-12-17T02:24:15.569Z,29.55
2022-12-17T02:27:06.337Z,26.48
2022-12-17T02:30:02.910Z,24.98
2022-12-17T02:32:54.140Z,25.80
2022-12-17T02:35:54.966Z,28.98
2022-12-17T02:38:49.225Z,25.58
2022-12-17T02:41:48.177Z,25.17
2022-12-17T02:44:39.201Z,25.35
2022-12-17T02:47:29.735Z,25.83
2022-12-17T02:50:16.184Z,29.85
2022-12-17T02:55:53.665Z,26.02
2022-12-17T02:58:41.322Z,25.20
2022-12-17T03:04:14.950Z,27.00
2022-12-17T03:07:03.468Z,28.02
2022-12-17T03:09:50.330Z,25.33
2022-12-17T03:12:37.691Z,26.15
2022-12-17T03:15:35.459Z,26.20
2022-12-17T03:18:21.926Z,27.33
2022-12-17T03:21:12.276Z,26.60
2022-12-17T03:23:58.506Z,27.58
2022-12-17T03:26:44.884Z,26.35
2022-12-17T03:29:31.806Z,27.38
2022-12-17T03:32:18.930Z,31.15
2022-12-17T03:35:05.866Z,27.90
2022-12-17T03:37:52.215Z,28.25
2022-12-17T03:40:38.767Z,28.70
2022-12-17T03:43:27.107Z,27.58
2022-12-17T03:46:15.017Z,27.30
2022-12-17T03:49:01.546Z,26.52
2022-12-17T03:51:48.496Z,29.83
2022-12-17T03:54:36.169Z,24.70
2022-12-17T04:00:09.562Z,27.27
2022-12-17T04:02:59.428Z,27.40
2022-12-17T04:05:46.381Z,25.43
2022-12-17T04:08:33.503Z,31.45
2022-12-17T04:11:20.458Z,25.52
2022-12-17T04:14:07.330Z,26.45
2022-12-17T04:16:54.290Z,26.25
2022-12-17T04:19:41.452Z,30.80
2022-12-17T04:22:28.813Z,30.40
2022-12-17T04:25:15.293Z,32.33
2022-12-17T04:28:02.341Z,31.27
2022-12-17T04:30:49.066Z,30.38
2022-12-17T04:33:36.247Z,31.67
2022-12-17T04:36:23.417Z,33.42
2022-12-17T04:39:10.290Z,36.72
2022-12-17T04:41:57.331Z,36.15
2022-12-17T04:44:44.210Z,36.10
2022-12-17T04:47:30.850Z,36.78
2022-12-17T04:50:17.971Z,39.00
2022-12-17T04:53:04.375Z,42.47
2022-12-17T04:55:51.215Z,34.97
2022-12-17T04:58:38.095Z,38.40
2022-12-17T05:01:25.457Z,37.27
2022-12-17T05:04:12.585Z,37.63
2022-12-17T05:06:59.468Z,37.20
2022-12-17T05:09:46.427Z,39.00
2022-12-17T05:12:33.071Z,36.38
2022-12-17T05:15:19.946Z,36.53
2022-12-17T05:18:06.786Z,41.03
2022-12-17T05:20:53.226Z,39.00
2022-12-17T05:23:56.825Z,41.10
2022-12-17T05:26:46.305Z,38.58
2022-12-17T05:29:33.666Z,39.70
2022-12-17T05:32:20.585Z,42.17
2022-12-17T05:35:06.946Z,43.33
2022-12-17T05:37:53.317Z,42.42
2022-12-17T05:40:39.766Z,44.03
2022-12-17T05:43:30.855Z,41.70
2022-12-17T05:46:17.429Z,45.50
2022-12-17T05:49:03.987Z,47.25
2022-12-17T05:51:50.721Z,45.20
2022-12-17T05:54:38.052Z,45.60
2022-12-17T05:57:24.411Z,45.10
2022-12-17T06:00:11.450Z,39.35
2022-12-17T06:03:01.723Z,43.75
2022-12-17T06:05:48.141Z,39.92
2022-12-17T06:08:34.782Z,42.88
2022-12-17T06:11:21.860Z,41.85
2022-12-17T06:14:08.696Z,44.47
2022-12-17T06:16:55.176Z,38.90
2022-12-17T06:19:42.179Z,42.58
2022-12-17T06:22:29.090Z,42.30
2022-12-17T06:25:15.981Z,43.00
2022-12-17T06:28:02.861Z,41.13
2022-12-17T06:30:49.331Z,39.27
2022-12-17T06:33:36.119Z,45.78
2022-12-17T06:36:23.866Z,42.28
2022-12-17T06:39:10.432Z,42.53
2022-12-17T16:09:25.187Z,50.30
2022-12-17T16:11:55.225Z,60.03
2022-12-17T16:14:24.340Z,56.92
2022-12-17T16:16:52.725Z,59.03
2022-12-17T16:19:21.723Z,53.97
2022-12-17T16:21:50.093Z,48.45
2022-12-17T16:24:19.060Z,48.33
2022-12-17T16:26:47.717Z,44.90
2022-12-17T16:29:16.456Z,44.95
2022-12-17T16:31:45.054Z,44.83
2022-12-17T16:34:14.607Z,41.00
2022-12-17T16:36:43.594Z,44.05
2022-12-17T16:39:17.338Z,41.83
2022-12-17T16:41:46.162Z,46.00
2022-12-17T16:44:14.619Z,42.25
2022-12-17T16:46:44.552Z,42.92
2022-12-17T16:49:17.168Z,39.42
2022-12-17T16:51:46.844Z,41.22
2022-12-17T16:54:17.885Z,42.30
2022-12-17T16:56:47.571Z,40.00
2022-12-17T16:59:17.750Z,42.50
2022-12-17T17:01:49.806Z,40.70
2022-12-17T17:04:20.801Z,39.15
2022-12-17T17:06:52.685Z,41.38
2022-12-17T17:09:22.394Z,38.60
2022-12-17T17:11:52.523Z,43.95
2022-12-17T17:14:21.076Z,40.95
2022-12-17T17:16:50.030Z,41.85
2022-12-17T17:19:21.608Z,43.03
2022-12-17T17:21:52.987Z,44.03
2022-12-17T17:24:24.707Z,44.03
2022-12-17T17:26:54.021Z,41.88
2022-12-17T17:29:22.780Z,44.05
2022-12-17T17:34:39.762Z,46.83
2022-12-17T17:37:08.035Z,46.45
2022-12-17T17:39:36.551Z,47.25
2022-12-17T17:42:05.099Z,47.95
2022-12-17T17:44:33.667Z,47.03
2022-12-17T17:47:01.985Z,56.35
2022-12-17T17:49:30.955Z,49.25
2022-12-17T17:52:14.382Z,52.08
2022-12-17T17:54:42.770Z,56.13
2022-12-17T17:57:11.264Z,55.92
2022-12-17T17:59:42.676Z,55.17
2022-12-17T18:02:11.857Z,57.88
2022-12-17T18:04:40.385Z,54.70
2022-12-17T18:07:25.906Z,59.58
2022-12-17T18:09:56.309Z,56.33
2022-12-17T18:12:43.625Z,52.85
2022-12-17T18:15:14.749Z,47.75
2022-12-17T18:17:51.582Z,53.70
2022-12-17T18:20:20.071Z,54.83
2022-12-17T18:22:48.312Z,49.28
2022-12-17T18:25:18.878Z,50.13
2022-12-17T18:27:47.316Z,52.28
2022-12-17T18:30:16.640Z,53.22
2022-12-17T18:32:45.316Z,51.33
2022-12-17T18:35:13.927Z,53.40
2022-12-17T18:37:42.987Z,50.42
2022-12-17T18:40:12.508Z,49.95
2022-12-17T18:42:59.552Z,47.83
2022-12-17T18:45:27.779Z,48.65
2022-12-17T18:47:56.336Z,54.63
2022-12-17T18:50:24.650Z,52.38
2022-12-17T18:52:52.970Z,59.90
2022-12-17T18:55:21.567Z,54.40
2022-12-17T18:57:50.127Z,58.67
2022-12-17T19:00:21.747Z,53.60
2022-12-17T19:02:52.935Z,57.70
2022-12-17T19:05:21.237Z,61.63
2022-12-17T19:07:49.451Z,61.53
2022-12-17T19:10:19.400Z,66.25
2022-12-17T19:12:48.517Z,58.08
2022-12-17T19:15:17.152Z,63.70
2022-12-17T19:17:45.518Z,59.88
2022-12-17T19:20:13.718Z,68.97
2022-12-17T19:22:42.241Z,61.50
2022-12-17T19:25:10.882Z,59.10
2022-12-17T19:27:39.674Z,57.22
2022-12-17T19:30:09.161Z,63.20
2022-12-17T19:32:38.000Z,62.20
2022-12-17T19:35:06.883Z,61.75
2022-12-17T19:37:35.366Z,58.35
2022-12-17T19:40:04.005Z,65.70
2022-12-17T19:42:37.433Z,60.92
2022-12-17T19:45:07.351Z,59.60
2022-12-17T19:47:35.556Z,64.97
2022-12-17T19:50:03.917Z,64.00
2022-12-17T19:52:32.165Z,64.78
2022-12-17T19:55:00.471Z,63.03
2022-12-17T19:57:28.659Z,65.25
2022-12-17T19:59:56.972Z,67.60
2022-12-17T20:02:32.278Z,63.22
2022-12-17T20:05:01.217Z,58.35
2022-12-17T20:07:29.920Z,64.18
2022-12-17T20:09:58.139Z,61.05
2022-12-17T20:12:26.272Z,61.10
2022-12-17T20:14:54.997Z,68.30
2022-12-17T20:17:23.767Z,59.65
2022-12-17T20:19:53.720Z,66.38
2022-12-17T20:22:23.377Z,58.38
2022-12-17T20:24:53.601Z,61.03
2022-12-17T20:27:21.714Z,57.30
2022-12-17T20:29:49.860Z,59.58
2022-12-17T20:32:20.728Z,59.70
2022-12-17T20:34:48.858Z,65.90
2022-12-17T20:37:16.936Z,62.47
2022-12-17T20:39:45.208Z,59.05
2022-12-17T20:42:13.567Z,58.90
2022-12-17T20:44:42.119Z,60.58
2022-12-17T20:47:10.712Z,61.92
2022-12-17T20:49:38.837Z,67.18
2022-12-17T20:52:07.501Z,56.92
2022-12-17T20:54:36.222Z,64.88
2022-12-17T20:57:04.632Z,61.45
2022-12-17T20:59:32.497Z,64.47
2022-12-17T21:02:00.737Z,59.28
2022-12-17T21:04:29.274Z,60.85
2022-12-17T21:06:57.091Z,62.33
2022-12-17T21:09:25.734Z,63.35
2022-12-17T21:11:54.239Z,59.15
2022-12-17T21:14:22.327Z,66.55
2022-12-17T21:16:50.445Z,62.60
2022-12-17T21:19:20.462Z,63.88
2022-12-17T21:21:49.256Z,60.70
2022-12-17T21:24:17.407Z,58.08
2022-12-17T21:26:48.032Z,58.03
2022-12-17T21:29:17.040Z,53.78
2022-12-17T21:31:49.796Z,51.83
2022-12-17T21:34:23.708Z,61.05
2022-12-17T21:36:52.998Z,55.10
2022-12-17T21:39:21.891Z,52.05
2022-12-17T21:42:16.915Z,54.75
2022-12-17T21:44:45.187Z,50.70
2022-12-17T21:47:13.542Z,52.60
2022-12-17T21:49:41.857Z,52.55
2022-12-17T21:52:10.880Z,54.55
2022-12-17T21:54:39.822Z,49.78
2022-12-17T21:57:08.763Z,46.88
2022-12-17T21:59:37.300Z,50.22
2022-12-17T22:02:10.973Z,49.88
2022-12-17T22:04:39.748Z,57.55
2022-12-17T22:07:12.015Z,58.15
2022-12-17T22:10:15.038Z,60.80
2022-12-17T22:12:56.332Z,67.22
2022-12-17T22:15:25.961Z,59.70
2022-12-17T22:17:58.367Z,65.25
2022-12-17T22:20:27.986Z,68.22
2022-12-17T22:22:56.382Z,71.22
2022-12-17T22:25:24.850Z,60.13
2022-12-17T22:27:53.692Z,62.15
2022-12-17T22:30:41.135Z,71.63
2022-12-17T22:33:39.867Z,65.60
2022-12-17T22:38:41.219Z,59.55
2022-12-17T22:42:25.458Z,57.50
2022-12-17T22:44:44.909Z,57.13
2022-12-17T22:44:53.169Z,55.17
2022-12-17T22:47:23.052Z,55.92
2022-12-17T22:49:51.050Z,53.28
2022-12-17T22:52:19.961Z,49.67
2022-12-17T22:54:48.925Z,52.85
2022-12-17T22:57:34.356Z,53.55
2022-12-17T23:00:13.869Z,54.42
2022-12-17T23:02:42.586Z,55.30
2022-12-17T23:05:11.143Z,57.90
2022-12-17T23:07:39.851Z,63.15
2022-12-17T23:10:08.835Z,65.80
2022-12-17T23:12:52.165Z,64.97
2022-12-17T23:15:23.577Z,68.00
2022-12-17T23:17:53.576Z,71.82
2022-12-17T23:20:22.812Z,64.18
2022-12-17T23:22:51.494Z,70.78
2022-12-17T23:25:20.350Z,66.47
2022-12-17T23:27:49.012Z,70.70
2022-12-17T23:30:17.930Z,74.95
2022-12-17T23:32:46.816Z,71.40
2022-12-17T23:35:15.321Z,66.55
2022-12-17T23:37:43.766Z,68.13
2022-12-17T23:40:13.020Z,69.75
2022-12-17T23:42:41.637Z,74.13
2022-12-17T23:45:12.207Z,72.38
2022-12-17T23:47:41.466Z,81.05
2022-12-17T23:50:11.646Z,72.65
2022-12-17T23:52:40.002Z,70.03
2022-12-17T23:55:09.541Z,67.93
2022-12-17T23:57:37.942Z,66.97
